sensor_id;sensor_type;location;lat;lon;timestamp;temperature;humidity
36586;DHT22;22591;48.314;11.562;2023-02-19T00:01:14;11.30;99.90
36586;DHT22;22591;48.314;11.562;2023-02-19T00:03:41;11.30;99.90
36586;DHT22;22591;48.314;11.562;2023-02-19T00:06:09;11.20;99.90
36586;DHT22;22591;48.314;11.562;2023-02-19T00:08:36;11.20;99.90
36586;DHT22;22591;48.314;11.562;2023-02-19T00:11:24;11.20;99.90
36586;DHT22;22591;48.314;11.562;2023-02-19T00:13:50;11.10;99.90
36586;DHT22;22591;48.314;11.562;2023-02-19T00:16:22;11.20;99.90
36586;DHT22;22591;48.314;11.562;2023-02-19T00:18:48;11.10;99.90
36586;DHT22;22591;48.314;11.562;2023-02-19T00:21:14;11.10;99.90
36586;DHT22;22591;48.314;11.562;2023-02-19T00:23:40;11.10;99.90
36586;DHT22;22591;48.314;11.562;2023-02-19T00:26:08;11.10;99.90
36586;DHT22;22591;48.314;11.562;2023-02-19T00:28:34;11.10;99.90
36586;DHT22;22591;48.314;11.562;2023-02-19T00:31:15;11.00;99.90
36586;DHT22;22591;48.314;11.562;2023-02-19T00:33:42;11.00;99.90
36586;DHT22;22591;48.314;11.562;2023-02-19T00:36:08;11.10;99.90
36586;DHT22;22591;48.314;11.562;2023-02-19T00:38:38;11.00;99.90
36586;DHT22;22591;48.314;11.562;2023-02-19T00:41:04;11.00;99.90
36586;DHT22;22591;48.314;11.562;2023-02-19T00:43:54;11.00;99.90
36586;DHT22;22591;48.314;11.562;2023-02-19T00:46:35;11.00;99.90
36586;DHT22;22591;48.314;11.562;2023-02-19T00:49:01;11.00;99.90
36586;DHT22;22591;48.314;11.562;2023-02-19T00:51:29;11.00;99.90
36586;DHT22;22591;48.314;11.562;2023-02-19T00:53:55;11.00;99.90
36586;DHT22;22591;48.314;11.562;2023-02-19T00:56:21;11.00;99.90
36586;DHT22;22591;48.314;11.562;2023-02-19T00:58:47;10.90;99.90
36586;DHT22;22591;48.314;11.562;2023-02-19T01:01:13;10.90;99.90
36586;DHT22;22591;48.314;11.562;2023-02-19T01:03:39;10.90;99.90
36586;DHT22;22591;48.314;11.562;2023-02-19T01:06:06;11.00;99.90
36586;DHT22;22591;48.314;11.562;2023-02-19T01:08:32;11.00;99.90
36586;DHT22;22591;48.314;11.562;2023-02-19T01:10:58;10.90;99.90
36586;DHT22;22591;48.314;11.562;2023-02-19T01:13:24;11.00;99.90
36586;DHT22;22591;48.314;11.562;2023-02-19T01:15:50;10.90;99.90
36586;DHT22;22591;48.314;11.562;2023-02-19T01:18:15;10.90;99.90
36586;DHT22;22591;48.314;11.562;2023-02-19T01:20:42;10.90;99.90
36586;DHT22;22591;48.314;11.562;2023-02-19T01:23:10;10.90;99.90
36586;DHT22;22591;48.314;11.562;2023-02-19T01:25:40;11.00;99.90
36586;DHT22;22591;48.314;11.562;2023-02-19T01:28:06;10.90;99.90
36586;DHT22;22591;48.314;11.562;2023-02-19T01:30:36;11.00;99.90
36586;DHT22;22591;48.314;11.562;2023-02-19T01:33:06;11.00;99.90
36586;DHT22;22591;48.314;11.562;2023-02-19T01:35:32;11.00;99.90
36586;DHT22;22591;48.314;11.562;2023-02-19T01:37:58;11.00;99.90
36586;DHT22;22591;48.314;11.562;2023-02-19T01:40:24;11.00;99.90
36586;DHT22;22591;48.314;11.562;2023-02-19T01:42:49;11.00;99.90
36586;DHT22;22591;48.314;11.562;2023-02-19T01:45:31;11.00;99.90
36586;DHT22;22591;48.314;11.562;2023-02-19T01:48:07;10.90;99.90
36586;DHT22;22591;48.314;11.562;2023-02-19T01:50:37;10.90;99.90
36586;DHT22;22591;48.314;11.562;2023-02-19T01:53:06;10.90;99.90
36586;DHT22;22591;48.314;11.562;2023-02-19T01:55:35;10.90;99.90
36586;DHT22;22591;48.314;11.562;2023-02-19T01:58:02;10.90;99.90
36586;DHT22;22591;48.314;11.562;2023-02-19T02:00:28;10.90;99.90
36586;DHT22;22591;48.314;11.562;2023-02-19T02:02:56;10.90;99.90
36586;DHT22;22591;48.314;11.562;2023-02-19T02:08:12;10.90;99.90
36586;DHT22;22591;48.314;11.562;2023-02-19T02:10:57;10.90;99.90
36586;DHT22;22591;48.314;11.562;2023-02-19T02:13:23;10.90;99.90
36586;DHT22;22591;48.314;11.562;2023-02-19T02:16:29;10.90;99.90
36586;DHT22;22591;48.314;11.562;2023-02-19T02:18:53;10.90;99.90
36586;DHT22;22591;48.314;11.562;2023-02-19T02:26:50;10.90;99.90
36586;DHT22;22591;48.314;11.562;2023-02-19T02:32:20;10.90;99.90
36586;DHT22;22591;48.314;11.562;2023-02-19T02:34:55;10.90;99.90
36586;DHT22;22591;48.314;11.562;2023-02-19T02:37:24;10.90;99.90
36586;DHT22;22591;48.314;11.562;2023-02-19T02:39:51;10.90;99.90
36586;DHT22;22591;48.314;11.562;2023-02-19T02:42:17;10.90;99.90
36586;DHT22;22591;48.314;11.562;2023-02-19T02:44:53;10.80;99.90
36586;DHT22;22591;48.314;11.562;2023-02-19T02:47:48;10.70;99.90
36586;DHT22;22591;48.314;11.562;2023-02-19T02:50:18;10.60;99.90
36586;DHT22;22591;48.314;11.562;2023-02-19T02:52:45;10.60;99.90
36586;DHT22;22591;48.314;11.562;2023-02-19T02:55:36;10.60;99.90
36586;DHT22;22591;48.314;11.562;2023-02-19T02:58:04;10.60;99.90
36586;DHT22;22591;48.314;11.562;2023-02-19T03:00:31;10.60;99.90
36586;DHT22;22591;48.314;11.562;2023-02-19T03:03:18;10.60;99.90
36586;DHT22;22591;48.314;11.562;2023-02-19T03:05:48;10.70;99.90
36586;DHT22;22591;48.314;11.562;2023-02-19T03:08:34;10.70;99.90
36586;DHT22;22591;48.314;11.562;2023-02-19T03:11:05;10.60;99.90
36586;DHT22;22591;48.314;11.562;2023-02-19T03:14:04;10.50;99.90
36586;DHT22;22591;48.314;11.562;2023-02-19T03:16:51;10.50;99.90
36586;DHT22;22591;48.314;11.562;2023-02-19T03:19:43;10.40;99.90
36586;DHT22;22591;48.314;11.562;2023-02-19T03:22:11;10.40;99.90
36586;DHT22;22591;48.314;11.562;2023-02-19T03:25:27;10.40;99.90
36586;DHT22;22591;48.314;11.562;2023-02-19T03:27:47;10.40;99.90
36586;DHT22;22591;48.314;11.562;2023-02-19T03:30:21;10.40;99.90
36586;DHT22;22591;48.314;11.562;2023-02-19T03:32:52;10.40;99.90
36586;DHT22;22591;48.314;11.562;2023-02-19T03:35:22;10.40;99.90
36586;DHT22;22591;48.314;11.562;2023-02-19T03:38:10;10.40;99.90
36586;DHT22;22591;48.314;11.562;2023-02-19T03:43:31;10.20;99.90
36586;DHT22;22591;48.314;11.562;2023-02-19T03:48:35;10.10;99.90
36586;DHT22;22591;48.314;11.562;2023-02-19T03:51:24;10.10;99.90
36586;DHT22;22591;48.314;11.562;2023-02-19T03:57:00;9.90;99.90
36586;DHT22;22591;48.314;11.562;2023-02-19T03:59:58;9.90;99.90
36586;DHT22;22591;48.314;11.562;2023-02-19T04:02:34;9.90;99.90
36586;DHT22;22591;48.314;11.562;2023-02-19T04:05:24;9.80;99.90
36586;DHT22;22591;48.314;11.562;2023-02-19T04:07:53;9.80;99.90
36586;DHT22;22591;48.314;11.562;2023-02-19T04:10:19;9.80;99.90
36586;DHT22;22591;48.314;11.562;2023-02-19T04:13:00;9.80;99.90
36586;DHT22;22591;48.314;11.562;2023-02-19T04:15:32;9.80;99.90
36586;DHT22;22591;48.314;11.562;2023-02-19T04:18:00;9.80;99.90
36586;DHT22;22591;48.314;11.562;2023-02-19T04:20:32;9.80;99.90
36586;DHT22;22591;48.314;11.562;2023-02-19T04:22:58;9.80;99.90
36586;DHT22;22591;48.314;11.562;2023-02-19T04:25:25;9.70;99.90
36586;DHT22;22591;48.314;11.562;2023-02-19T04:27:52;9.70;99.90
36586;DHT22;22591;48.314;11.562;2023-02-19T04:30:17;9.80;99.90
36586;DHT22;22591;48.314;11.562;2023-02-19T04:32:46;9.80;99.90
36586;DHT22;22591;48.314;11.562;2023-02-19T04:35:11;9.70;99.90
36586;DHT22;22591;48.314;11.562;2023-02-19T04:37:37;9.70;99.90
36586;DHT22;22591;48.314;11.562;2023-02-19T04:40:03;9.70;99.90
36586;DHT22;22591;48.314;11.562;2023-02-19T04:42:28;9.70;99.90
36586;DHT22;22591;48.314;11.562;2023-02-19T04:44:54;9.60;99.90
36586;DHT22;22591;48.314;11.562;2023-02-19T04:47:19;9.60;99.90
36586;DHT22;22591;48.314;11.562;2023-02-19T04:49:45;9.60;99.90
36586;DHT22;22591;48.314;11.562;2023-02-19T04:52:10;9.50;99.90
36586;DHT22;22591;48.314;11.562;2023-02-19T04:54:36;9.60;99.90
36586;DHT22;22591;48.314;11.562;2023-02-19T04:57:02;9.60;99.90
36586;DHT22;22591;48.314;11.562;2023-02-19T04:59:28;9.50;99.90
36586;DHT22;22591;48.314;11.562;2023-02-19T05:01:53;9.60;99.90
36586;DHT22;22591;48.314;11.562;2023-02-19T05:04:19;9.60;99.90
36586;DHT22;22591;48.314;11.562;2023-02-19T05:06:45;9.50;99.90
36586;DHT22;22591;48.314;11.562;2023-02-19T05:09:10;9.50;99.90
36586;DHT22;22591;48.314;11.562;2023-02-19T05:11:36;9.50;99.90
36586;DHT22;22591;48.314;11.562;2023-02-19T05:14:01;9.50;99.90
36586;DHT22;22591;48.314;11.562;2023-02-19T05:16:27;9.50;99.90
36586;DHT22;22591;48.314;11.562;2023-02-19T05:18:53;9.50;99.90
36586;DHT22;22591;48.314;11.562;2023-02-19T05:21:18;9.50;99.90
36586;DHT22;22591;48.314;11.562;2023-02-19T05:23:44;9.50;99.90
36586;DHT22;22591;48.314;11.562;2023-02-19T05:26:18;9.50;99.90
36586;DHT22;22591;48.314;11.562;2023-02-19T05:28:45;9.50;99.90
36586;DHT22;22591;48.314;11.562;2023-02-19T05:31:11;9.50;99.90
36586;DHT22;22591;48.314;11.562;2023-02-19T05:33:37;9.50;99.90
36586;DHT22;22591;48.314;11.562;2023-02-19T05:36:08;9.40;99.90
36586;DHT22;22591;48.314;11.562;2023-02-19T05:38:35;9.40;99.90
36586;DHT22;22591;48.314;11.562;2023-02-19T05:43:33;9.40;99.90
36586;DHT22;22591;48.314;11.562;2023-02-19T05:45:58;9.40;99.90
36586;DHT22;22591;48.314;11.562;2023-02-19T05:48:24;9.40;99.90
36586;DHT22;22591;48.314;11.562;2023-02-19T05:50:49;9.40;99.90
36586;DHT22;22591;48.314;11.562;2023-02-19T05:53:15;9.40;99.90
36586;DHT22;22591;48.314;11.562;2023-02-19T05:55:40;9.40;99.90
36586;DHT22;22591;48.314;11.562;2023-02-19T05:58:06;9.50;99.90
36586;DHT22;22591;48.314;11.562;2023-02-19T06:00:32;9.50;99.90
36586;DHT22;22591;48.314;11.562;2023-02-19T06:02:58;9.50;99.90
36586;DHT22;22591;48.314;11.562;2023-02-19T06:05:23;9.40;99.90
36586;DHT22;22591;48.314;11.562;2023-02-19T06:07:49;9.40;99.90
36586;DHT22;22591;48.314;11.562;2023-02-19T06:10:15;9.40;99.90
36586;DHT22;22591;48.314;11.562;2023-02-19T06:12:40;9.40;99.90
36586;DHT22;22591;48.314;11.562;2023-02-19T06:15:06;9.40;99.90
36586;DHT22;22591;48.314;11.562;2023-02-19T06:17:32;9.40;99.90
36586;DHT22;22591;48.314;11.562;2023-02-19T06:19:58;9.40;99.90
36586;DHT22;22591;48.314;11.562;2023-02-19T06:22:24;9.40;99.90
36586;DHT22;22591;48.314;11.562;2023-02-19T06:24:50;9.40;99.90
36586;DHT22;22591;48.314;11.562;2023-02-19T06:27:15;9.40;99.90
36586;DHT22;22591;48.314;11.562;2023-02-19T06:29:41;9.30;99.90
36586;DHT22;22591;48.314;11.562;2023-02-19T06:32:07;9.30;99.90
36586;DHT22;22591;48.314;11.562;2023-02-19T06:34:33;9.40;99.90
36586;DHT22;22591;48.314;11.562;2023-02-19T06:36:59;9.40;99.90
36586;DHT22;22591;48.314;11.562;2023-02-19T06:39:26;9.50;99.90
36586;DHT22;22591;48.314;11.562;2023-02-19T06:41:54;9.60;99.90
36586;DHT22;22591;48.314;11.562;2023-02-19T06:44:20;9.70;99.90
36586;DHT22;22591;48.314;11.562;2023-02-19T06:46:46;9.70;99.90
36586;DHT22;22591;48.314;11.562;2023-02-19T06:49:11;9.70;99.90
36586;DHT22;22591;48.314;11.562;2023-02-19T06:51:37;9.70;99.90
36586;DHT22;22591;48.314;11.562;2023-02-19T06:54:03;9.60;99.90
36586;DHT22;22591;48.314;11.562;2023-02-19T06:56:32;9.70;99.90
36586;DHT22;22591;48.314;11.562;2023-02-19T06:59:00;9.80;99.90
36586;DHT22;22591;48.314;11.562;2023-02-19T07:01:27;9.70;99.90
36586;DHT22;22591;48.314;11.562;2023-02-19T07:03:53;9.70;99.90
36586;DHT22;22591;48.314;11.562;2023-02-19T07:06:20;9.70;99.90
36586;DHT22;22591;48.314;11.562;2023-02-19T07:08:46;9.70;99.90
36586;DHT22;22591;48.314;11.562;2023-02-19T07:11:12;9.70;99.90
36586;DHT22;22591;48.314;11.562;2023-02-19T07:13:37;9.70;99.90
36586;DHT22;22591;48.314;11.562;2023-02-19T07:16:06;9.60;99.90
36586;DHT22;22591;48.314;11.562;2023-02-19T07:18:35;9.50;99.90
36586;DHT22;22591;48.314;11.562;2023-02-19T07:21:12;9.40;99.90
36586;DHT22;22591;48.314;11.562;2023-02-19T07:23:38;9.30;99.90
36586;DHT22;22591;48.314;11.562;2023-02-19T07:26:07;9.30;99.90
36586;DHT22;22591;48.314;11.562;2023-02-19T07:28:33;9.30;99.90
36586;DHT22;22591;48.314;11.562;2023-02-19T07:31:02;9.20;99.90
36586;DHT22;22591;48.314;11.562;2023-02-19T07:33:29;9.20;99.90
36586;DHT22;22591;48.314;11.562;2023-02-19T07:35:55;9.20;99.90
36586;DHT22;22591;48.314;11.562;2023-02-19T07:38:22;9.20;99.90
36586;DHT22;22591;48.314;11.562;2023-02-19T07:40:59;9.00;99.90
36586;DHT22;22591;48.314;11.562;2023-02-19T07:43:27;8.90;99.90
36586;DHT22;22591;48.314;11.562;2023-02-19T07:45:54;8.80;99.90
36586;DHT22;22591;48.314;11.562;2023-02-19T07:48:21;8.70;99.90
36586;DHT22;22591;48.314;11.562;2023-02-19T07:50:56;8.80;99.90
36586;DHT22;22591;48.314;11.562;2023-02-19T07:53:25;8.80;99.90
36586;DHT22;22591;48.314;11.562;2023-02-19T07:55:52;8.90;99.90
36586;DHT22;22591;48.314;11.562;2023-02-19T07:58:19;8.90;99.90
36586;DHT22;22591;48.314;11.562;2023-02-19T08:00:46;9.00;99.90
36586;DHT22;22591;48.314;11.562;2023-02-19T08:03:11;9.20;99.90
36586;DHT22;22591;48.314;11.562;2023-02-19T08:05:40;9.30;99.90
36586;DHT22;22591;48.314;11.562;2023-02-19T08:08:09;9.40;99.90
36586;DHT22;22591;48.314;11.562;2023-02-19T08:10:35;9.60;99.90
36586;DHT22;22591;48.314;11.562;2023-02-19T08:13:19;9.60;99.90
36586;DHT22;22591;48.314;11.562;2023-02-19T08:15:49;9.60;99.90
36586;DHT22;22591;48.314;11.562;2023-02-19T08:18:16;9.70;99.90
36586;DHT22;22591;48.314;11.562;2023-02-19T08:20:42;9.80;99.90
36586;DHT22;22591;48.314;11.562;2023-02-19T08:23:09;10.00;99.90
36586;DHT22;22591;48.314;11.562;2023-02-19T08:25:35;10.10;99.90
36586;DHT22;22591;48.314;11.562;2023-02-19T08:28:01;10.20;99.90
36586;DHT22;22591;48.314;11.562;2023-02-19T08:30:28;10.20;99.90
36586;DHT22;22591;48.314;11.562;2023-02-19T08:32:54;10.20;99.90
36586;DHT22;22591;48.314;11.562;2023-02-19T08:35:20;10.50;99.90
36586;DHT22;22591;48.314;11.562;2023-02-19T08:37:46;10.80;99.90
36586;DHT22;22591;48.314;11.562;2023-02-19T08:40:11;10.90;99.90
36586;DHT22;22591;48.314;11.562;2023-02-19T08:42:37;10.90;99.90
36586;DHT22;22591;48.314;11.562;2023-02-19T08:45:03;11.10;99.90
36586;DHT22;22591;48.314;11.562;2023-02-19T08:47:39;11.20;99.90
36586;DHT22;22591;48.314;11.562;2023-02-19T08:50:11;11.20;99.90
36586;DHT22;22591;48.314;11.562;2023-02-19T08:52:37;10.90;99.90
36586;DHT22;22591;48.314;11.562;2023-02-19T08:55:04;10.20;99.90
36586;DHT22;22591;48.314;11.562;2023-02-19T08:57:30;9.80;99.90
36586;DHT22;22591;48.314;11.562;2023-02-19T08:59:56;9.50;99.90
36586;DHT22;22591;48.314;11.562;2023-02-19T09:02:23;9.50;99.90
36586;DHT22;22591;48.314;11.562;2023-02-19T09:04:48;9.40;99.90
36586;DHT22;22591;48.314;11.562;2023-02-19T09:07:14;9.50;99.90
36586;DHT22;22591;48.314;11.562;2023-02-19T09:09:40;9.60;99.90
36586;DHT22;22591;48.314;11.562;2023-02-19T09:12:07;9.60;99.90
36586;DHT22;22591;48.314;11.562;2023-02-19T09:14:35;9.60;99.90
36586;DHT22;22591;48.314;11.562;2023-02-19T09:17:04;9.80;99.90
36586;DHT22;22591;48.314;11.562;2023-02-19T09:19:30;9.90;99.90
36586;DHT22;22591;48.314;11.562;2023-02-19T09:21:56;10.00;99.90
36586;DHT22;22591;48.314;11.562;2023-02-19T09:24:21;10.10;99.90
36586;DHT22;22591;48.314;11.562;2023-02-19T09:26:51;10.30;99.90
36586;DHT22;22591;48.314;11.562;2023-02-19T09:29:18;10.50;99.90
36586;DHT22;22591;48.314;11.562;2023-02-19T09:31:44;10.70;99.90
36586;DHT22;22591;48.314;11.562;2023-02-19T09:34:09;10.90;99.90
36586;DHT22;22591;48.314;11.562;2023-02-19T09:36:36;11.00;99.90
36586;DHT22;22591;48.314;11.562;2023-02-19T09:39:02;11.10;99.90
36586;DHT22;22591;48.314;11.562;2023-02-19T09:44:34;11.20;99.90
36586;DHT22;22591;48.314;11.562;2023-02-19T09:47:04;11.30;99.90
36586;DHT22;22591;48.314;11.562;2023-02-19T09:49:37;11.30;99.90
36586;DHT22;22591;48.314;11.562;2023-02-19T09:52:31;11.40;99.90
36586;DHT22;22591;48.314;11.562;2023-02-19T09:55:01;11.30;99.90
36586;DHT22;22591;48.314;11.562;2023-02-19T09:57:29;11.20;99.90
36586;DHT22;22591;48.314;11.562;2023-02-19T10:00:05;11.30;99.90
36586;DHT22;22591;48.314;11.562;2023-02-19T10:02:37;11.40;99.90
36586;DHT22;22591;48.314;11.562;2023-02-19T10:05:12;11.40;99.90
36586;DHT22;22591;48.314;11.562;2023-02-19T10:07:42;11.10;99.90
36586;DHT22;22591;48.314;11.562;2023-02-19T10:12:45;10.80;99.90
36586;DHT22;22591;48.314;11.562;2023-02-19T10:15:17;10.80;99.90
36586;DHT22;22591;48.314;11.562;2023-02-19T10:17:43;10.80;99.90
36586;DHT22;22591;48.314;11.562;2023-02-19T10:20:17;10.90;99.90
36586;DHT22;22591;48.314;11.562;2023-02-19T10:22:43;11.40;99.90
36586;DHT22;22591;48.314;11.562;2023-02-19T10:25:13;11.90;99.90
36586;DHT22;22591;48.314;11.562;2023-02-19T10:27:40;12.10;99.90
36586;DHT22;22591;48.314;11.562;2023-02-19T10:30:22;12.00;99.90
36586;DHT22;22591;48.314;11.562;2023-02-19T10:33:12;11.90;99.90
36586;DHT22;22591;48.314;11.562;2023-02-19T10:35:57;12.10;99.90
36586;DHT22;22591;48.314;11.562;2023-02-19T10:38:35;12.10;98.30
36586;DHT22;22591;48.314;11.562;2023-02-19T10:41:06;12.00;98.20
36586;DHT22;22591;48.314;11.562;2023-02-19T10:43:37;12.00;98.60
36586;DHT22;22591;48.314;11.562;2023-02-19T10:48:58;12.20;98.60
36586;DHT22;22591;48.314;11.562;2023-02-19T10:51:38;12.10;98.80
36586;DHT22;22591;48.314;11.562;2023-02-19T10:54:25;12.20;98.70
36586;DHT22;22591;48.314;11.562;2023-02-19T10:56:53;12.30;98.90
36586;DHT22;22591;48.314;11.562;2023-02-19T10:59:28;12.40;98.40
36586;DHT22;22591;48.314;11.562;2023-02-19T11:04:21;12.30;97.70
36586;DHT22;22591;48.314;11.562;2023-02-19T11:06:47;12.20;97.80
36586;DHT22;22591;48.314;11.562;2023-02-19T11:09:38;12.20;97.40
36586;DHT22;22591;48.314;11.562;2023-02-19T11:12:05;12.30;97.00
36586;DHT22;22591;48.314;11.562;2023-02-19T11:14:32;12.50;96.90
36586;DHT22;22591;48.314;11.562;2023-02-19T11:17:00;12.40;97.10
36586;DHT22;22591;48.314;11.562;2023-02-19T11:19:42;12.40;97.40
36586;DHT22;22591;48.314;11.562;2023-02-19T11:24:52;12.40;97.90
36586;DHT22;22591;48.314;11.562;2023-02-19T11:27:20;12.60;98.30
36586;DHT22;22591;48.314;11.562;2023-02-19T11:29:46;12.50;98.20
36586;DHT22;22591;48.314;11.562;2023-02-19T11:32:27;12.40;98.30
36586;DHT22;22591;48.314;11.562;2023-02-19T11:35:13;12.20;98.40
36586;DHT22;22591;48.314;11.562;2023-02-19T11:37:53;12.20;99.10
36586;DHT22;22591;48.314;11.562;2023-02-19T11:40:26;11.80;99.80
36586;DHT22;22591;48.314;11.562;2023-02-19T11:43:07;11.70;99.90
36586;DHT22;22591;48.314;11.562;2023-02-19T11:45:43;11.60;99.90
36586;DHT22;22591;48.314;11.562;2023-02-19T11:48:44;11.60;99.90
36586;DHT22;22591;48.314;11.562;2023-02-19T11:54:43;11.60;99.90
36586;DHT22;22591;48.314;11.562;2023-02-19T11:59:56;11.70;99.40
36586;DHT22;22591;48.314;11.562;2023-02-19T12:08:29;11.60;99.50
36586;DHT22;22591;48.314;11.562;2023-02-19T12:16:42;11.90;99.60
36586;DHT22;22591;48.314;11.562;2023-02-19T12:22:36;12.00;97.70
36586;DHT22;22591;48.314;11.562;2023-02-19T12:25:38;11.70;98.10
36586;DHT22;22591;48.314;11.562;2023-02-19T12:28:28;11.80;99.70
36586;DHT22;22591;48.314;11.562;2023-02-19T12:31:26;11.80;99.90
36586;DHT22;22591;48.314;11.562;2023-02-19T12:45:15;12.10;97.60
36586;DHT22;22591;48.314;11.562;2023-02-19T12:47:41;11.90;97.00
36586;DHT22;22591;48.314;11.562;2023-02-19T12:52:40;12.00;97.00
36586;DHT22;22591;48.314;11.562;2023-02-19T12:55:29;12.00;96.90
36586;DHT22;22591;48.314;11.562;2023-02-19T12:57:58;12.10;96.10
36586;DHT22;22591;48.314;11.562;2023-02-19T13:00:44;12.20;96.00
36586;DHT22;22591;48.314;11.562;2023-02-19T13:03:21;12.30;95.80
36586;DHT22;22591;48.314;11.562;2023-02-19T13:06:21;12.40;95.30
36586;DHT22;22591;48.314;11.562;2023-02-19T13:09:02;12.40;94.90
36586;DHT22;22591;48.314;11.562;2023-02-19T13:11:35;12.60;95.10
36586;DHT22;22591;48.314;11.562;2023-02-19T13:14:12;12.80;94.90
36586;DHT22;22591;48.314;11.562;2023-02-19T13:16:45;12.90;94.70
36586;DHT22;22591;48.314;11.562;2023-02-19T13:19:12;12.80;94.80
36586;DHT22;22591;48.314;11.562;2023-02-19T13:21:39;12.80;95.00
36586;DHT22;22591;48.314;11.562;2023-02-19T13:24:31;12.60;95.40
36586;DHT22;22591;48.314;11.562;2023-02-19T13:38:22;12.60;95.30
36586;DHT22;22591;48.314;11.562;2023-02-19T13:40:58;12.50;94.90
36586;DHT22;22591;48.314;11.562;2023-02-19T13:43:29;12.40;94.60
36586;DHT22;22591;48.314;11.562;2023-02-19T13:46:09;12.30;95.80
36586;DHT22;22591;48.314;11.562;2023-02-19T13:48:38;12.30;96.40
36586;DHT22;22591;48.314;11.562;2023-02-19T13:53:56;12.40;96.40
36586;DHT22;22591;48.314;11.562;2023-02-19T13:59:33;12.60;96.20
36586;DHT22;22591;48.314;11.562;2023-02-19T14:07:26;12.40;96.50
36586;DHT22;22591;48.314;11.562;2023-02-19T14:09:57;12.40;96.60
36586;DHT22;22591;48.314;11.562;2023-02-19T14:12:31;12.40;96.10
36586;DHT22;22591;48.314;11.562;2023-02-19T14:18:01;12.00;96.60
36586;DHT22;22591;48.314;11.562;2023-02-19T14:20:42;11.90;96.90
36586;DHT22;22591;48.314;11.562;2023-02-19T14:23:21;12.00;96.70
36586;DHT22;22591;48.314;11.562;2023-02-19T14:25:50;12.10;96.70
36586;DHT22;22591;48.314;11.562;2023-02-19T14:30:56;11.90;96.90
36586;DHT22;22591;48.314;11.562;2023-02-19T14:33:28;11.90;97.10
36586;DHT22;22591;48.314;11.562;2023-02-19T14:39:04;11.90;97.00
36586;DHT22;22591;48.314;11.562;2023-02-19T14:41:35;11.80;97.00
36586;DHT22;22591;48.314;11.562;2023-02-19T14:44:03;11.70;96.70
36586;DHT22;22591;48.314;11.562;2023-02-19T14:46:33;11.50;96.80
36586;DHT22;22591;48.314;11.562;2023-02-19T14:49:19;11.30;97.50
36586;DHT22;22591;48.314;11.562;2023-02-19T14:51:49;11.10;98.00
36586;DHT22;22591;48.314;11.562;2023-02-19T14:54:40;11.00;97.80
36586;DHT22;22591;48.314;11.562;2023-02-19T14:57:14;11.00;98.80
36586;DHT22;22591;48.314;11.562;2023-02-19T14:59:51;10.90;99.80
36586;DHT22;22591;48.314;11.562;2023-02-19T15:02:18;10.70;99.90
36586;DHT22;22591;48.314;11.562;2023-02-19T15:04:46;10.60;99.90
36586;DHT22;22591;48.314;11.562;2023-02-19T15:07:19;10.50;99.90
36586;DHT22;22591;48.314;11.562;2023-02-19T15:09:51;10.50;99.90
36586;DHT22;22591;48.314;11.562;2023-02-19T15:12:20;10.60;99.50
36586;DHT22;22591;48.314;11.562;2023-02-19T15:14:49;10.70;99.70
36586;DHT22;22591;48.314;11.562;2023-02-19T15:17:24;10.60;99.30
36586;DHT22;22591;48.314;11.562;2023-02-19T15:19:50;10.60;99.00
36586;DHT22;22591;48.314;11.562;2023-02-19T15:22:20;10.60;98.90
36586;DHT22;22591;48.314;11.562;2023-02-19T15:24:46;10.50;98.80
36586;DHT22;22591;48.314;11.562;2023-02-19T15:27:21;10.50;99.10
36586;DHT22;22591;48.314;11.562;2023-02-19T15:29:49;10.50;99.00
36586;DHT22;22591;48.314;11.562;2023-02-19T15:32:19;10.40;99.30
36586;DHT22;22591;48.314;11.562;2023-02-19T15:34:53;10.40;99.70
36586;DHT22;22591;48.314;11.562;2023-02-19T15:37:20;10.30;99.70
36586;DHT22;22591;48.314;11.562;2023-02-19T15:39:47;10.20;99.70
36586;DHT22;22591;48.314;11.562;2023-02-19T15:42:23;10.20;99.50
36586;DHT22;22591;48.314;11.562;2023-02-19T15:50:29;10.30;97.50
36586;DHT22;22591;48.314;11.562;2023-02-19T15:53:17;10.30;97.50
36586;DHT22;22591;48.314;11.562;2023-02-19T15:58:45;10.20;96.70
36586;DHT22;22591;48.314;11.562;2023-02-19T16:01:23;10.20;96.60
36586;DHT22;22591;48.314;11.562;2023-02-19T16:03:50;10.20;96.60
36586;DHT22;22591;48.314;11.562;2023-02-19T16:06:18;10.20;96.50
36586;DHT22;22591;48.314;11.562;2023-02-19T16:08:57;10.30;96.70
36586;DHT22;22591;48.314;11.562;2023-02-19T16:11:39;10.20;96.60
36586;DHT22;22591;48.314;11.562;2023-02-19T16:16:52;10.20;96.80
36586;DHT22;22591;48.314;11.562;2023-02-19T16:19:22;10.20;97.00
36586;DHT22;22591;48.314;11.562;2023-02-19T16:21:49;10.20;96.90
36586;DHT22;22591;48.314;11.562;2023-02-19T16:24:26;10.10;96.90
36586;DHT22;22591;48.314;11.562;2023-02-19T16:26:52;10.00;97.00
36586;DHT22;22591;48.314;11.562;2023-02-19T16:31:51;10.00;96.90
36586;DHT22;22591;48.314;11.562;2023-02-19T16:34:41;10.00;96.80
36586;DHT22;22591;48.314;11.562;2023-02-19T16:42:35;9.80;97.30
36586;DHT22;22591;48.314;11.562;2023-02-19T16:45:02;9.70;97.40
36586;DHT22;22591;48.314;11.562;2023-02-19T16:47:33;9.70;97.80
36586;DHT22;22591;48.314;11.562;2023-02-19T16:50:01;9.70;97.60
36586;DHT22;22591;48.314;11.562;2023-02-19T16:52:27;9.60;97.70
36586;DHT22;22591;48.314;11.562;2023-02-19T16:54:53;9.60;97.80
36586;DHT22;22591;48.314;11.562;2023-02-19T16:57:19;9.60;97.90
36586;DHT22;22591;48.314;11.562;2023-02-19T16:59:46;9.60;97.90
36586;DHT22;22591;48.314;11.562;2023-02-19T17:02:17;9.60;98.00
36586;DHT22;22591;48.314;11.562;2023-02-19T17:04:44;9.50;98.10
36586;DHT22;22591;48.314;11.562;2023-02-19T17:07:13;9.50;98.30
36586;DHT22;22591;48.314;11.562;2023-02-19T17:09:39;9.40;98.60
36586;DHT22;22591;48.314;11.562;2023-02-19T17:12:09;9.40;98.70
36586;DHT22;22591;48.314;11.562;2023-02-19T17:14:35;9.40;98.90
36586;DHT22;22591;48.314;11.562;2023-02-19T17:17:00;9.40;99.20
36586;DHT22;22591;48.314;11.562;2023-02-19T17:19:26;9.30;99.60
36586;DHT22;22591;48.314;11.562;2023-02-19T17:21:52;9.30;99.80
36586;DHT22;22591;48.314;11.562;2023-02-19T17:24:17;9.20;99.90
36586;DHT22;22591;48.314;11.562;2023-02-19T17:26:43;9.20;99.90
36586;DHT22;22591;48.314;11.562;2023-02-19T17:29:13;9.20;99.90
36586;DHT22;22591;48.314;11.562;2023-02-19T17:31:39;9.10;99.90
36586;DHT22;22591;48.314;11.562;2023-02-19T17:34:05;9.10;99.90
36586;DHT22;22591;48.314;11.562;2023-02-19T17:36:31;9.00;99.90
36586;DHT22;22591;48.314;11.562;2023-02-19T17:39:00;9.00;99.90
36586;DHT22;22591;48.314;11.562;2023-02-19T17:41:27;9.00;99.90
36586;DHT22;22591;48.314;11.562;2023-02-19T17:43:52;8.90;99.90
36586;DHT22;22591;48.314;11.562;2023-02-19T17:46:21;8.90;99.90